Time;durP1;ratioP1;P1;durP2;ratioP2;P2;SDS_P1;SDS_P2;PMS_P1;PMS_P2;Temp;Humidity;BMP_temperature;BMP_pressure;BME280_temperature;BME280_humidity;BME280_pressure;Samples;Min_cycle;Max_cycle;Signal;HPM_P1;HPM_P2
2023/12/31 00:01:59;;;;;;;8.73;5.30;;;23.20;45.60;;;;;;6262568;27;83845;-56
2023/12/31 00:05:00;;;;;;;8.27;5.28;;;23.30;45.70;;;;;;6258574;27;81657;-58
2023/12/31 00:08:00;;;;;;;8.98;5.60;;;23.20;45.60;;;;;;6261491;27;80419;-57
2023/12/31 00:11:02;;;;;;;11.02;5.53;;;23.20;45.50;;;;;;6260849;27;81282;-54
2023/12/31 00:14:02;;;;;;;8.27;4.93;;;23.30;45.60;;;;;;6260244;27;83189;-55
2023/12/31 00:17:03;;;;;;;9.82;5.05;;;23.30;45.60;;;;;;6261746;27;81865;-53
2023/12/31 00:20:03;;;;;;;9.20;5.25;;;23.30;45.50;;;;;;6260068;27;81418;-48
2023/12/31 00:23:04;;;;;;;7.65;4.90;;;23.20;45.40;;;;;;6241352;27;81054;-52
2023/12/31 00:26:05;;;;;;;8.73;4.93;;;23.30;45.50;;;;;;6259710;27;80923;-48
2023/12/31 00:29:05;;;;;;;9.20;4.90;;;23.30;45.50;;;;;;6260626;27;83262;-48
2023/12/31 00:32:06;;;;;;;8.15;4.68;;;23.20;45.50;;;;;;6242303;27;81852;-51
2023/12/31 00:35:06;;;;;;;6.68;4.43;;;23.30;45.50;;;;;;6260201;27;81474;-50
2023/12/31 00:38:06;;;;;;;8.88;4.63;;;23.20;45.40;;;;;;6240784;27;81605;-68
2023/12/31 00:41:07;;;;;;;8.10;4.75;;;23.30;45.50;;;;;;6262481;27;81937;-68
2023/12/31 00:44:08;;;;;;;8.07;4.68;;;23.20;45.50;;;;;;6261890;27;80602;-67
2023/12/31 00:47:08;;;;;;;10.70;5.10;;;23.20;45.70;;;;;;6260657;27;80953;-68
2023/12/31 00:50:09;;;;;;;9.13;5.05;;;23.20;45.70;;;;;;6258672;27;81269;-68
2023/12/31 00:53:10;;;;;;;8.07;4.63;;;23.20;45.70;;;;;;6236463;27;80820;-70
2023/12/31 00:56:10;;;;;;;11.23;5.32;;;23.20;45.60;;;;;;6262357;27;81126;-56
2023/12/31 00:59:11;;;;;;;8.65;5.35;;;23.20;45.70;;;;;;6255938;27;80735;-57
2023/12/31 01:02:12;;;;;;;10.40;4.95;;;23.20;45.70;;;;;;6245755;27;80967;-55
2023/12/31 01:05:12;;;;;;;7.90;4.57;;;23.20;45.70;;;;;;6243529;27;81942;-58
2023/12/31 01:08:12;;;;;;;8.73;5.18;;;23.20;45.70;;;;;;6267070;27;80597;-56
2023/12/31 01:11:13;;;;;;;8.15;4.60;;;23.20;45.90;;;;;;6272173;27;79992;-57
2023/12/31 01:14:14;;;;;;;7.70;5.03;;;23.20;45.80;;;;;;6275152;27;81000;-57
2023/12/31 01:17:15;;;;;;;8.63;4.85;;;23.20;45.80;;;;;;6250858;27;83371;-56
2023/12/31 01:20:15;;;;;;;9.25;5.25;;;23.20;45.70;;;;;;6258355;27;82990;-57
2023/12/31 01:23:16;;;;;;;10.27;4.47;;;23.20;45.60;;;;;;6274158;27;81112;-57
2023/12/31 01:26:16;;;;;;;7.80;4.55;;;23.20;45.70;;;;;;6274246;27;80540;-57
2023/12/31 01:29:16;;;;;;;8.35;4.88;;;23.20;45.90;;;;;;6254659;27;81076;-55
2023/12/31 01:32:17;;;;;;;8.52;5.32;;;23.20;45.80;;;;;;6255012;27;83499;-56
2023/12/31 01:35:18;;;;;;;9.15;5.20;;;23.20;45.70;;;;;;6242022;27;82052;-53
2023/12/31 01:38:18;;;;;;;8.50;5.00;;;23.20;46.00;;;;;;6253670;27;84128;-57
2023/12/31 01:41:19;;;;;;;11.25;4.85;;;23.10;45.70;;;;;;6270059;27;82944;-57
2023/12/31 01:44:19;;;;;;;8.38;5.00;;;23.20;45.60;;;;;;6271777;27;81486;-56
2023/12/31 01:47:20;;;;;;;9.20;4.70;;;23.20;45.60;;;;;;6252554;27;83382;-55
2023/12/31 01:50:20;;;;;;;8.13;4.85;;;23.20;45.80;;;;;;6254989;27;81903;-55
2023/12/31 01:53:21;;;;;;;7.20;4.43;;;23.20;45.80;;;;;;6270373;27;80860;-70
2023/12/31 01:56:21;;;;;;;9.70;4.80;;;23.10;45.60;;;;;;6272105;27;80616;-71
2023/12/31 01:59:22;;;;;;;8.05;4.40;;;23.10;45.80;;;;;;6261272;27;83201;-71
2023/12/31 02:02:22;;;;;;;10.20;5.40;;;23.10;45.60;;;;;;6262320;27;83455;-72
2023/12/31 02:05:23;;;;;;;8.15;4.53;;;23.10;45.40;;;;;;6261734;27;83329;-73
2023/12/31 02:08:23;;;;;;;9.27;5.00;;;23.10;45.60;;;;;;6281349;27;81210;-68
2023/12/31 02:11:24;;;;;;;7.20;4.35;;;23.20;45.60;;;;;;6276658;27;81954;-69
2023/12/31 02:14:24;;;;;;;11.70;4.50;;;23.10;45.60;;;;;;6275923;27;80865;-69
2023/12/31 02:17:25;;;;;;;8.38;4.32;;;23.10;45.60;;;;;;6277122;27;82815;-68
2023/12/31 02:20:26;;;;;;;10.20;4.32;;;23.10;45.50;;;;;;6276649;27;81624;-70
2023/12/31 02:23:27;;;;;;;9.98;5.10;;;23.10;45.90;;;;;;6263049;27;83183;-66
2023/12/31 02:26:27;;;;;;;8.38;4.85;;;23.10;45.40;;;;;;6278477;27;82585;-67
2023/12/31 02:29:28;;;;;;;9.30;4.65;;;23.10;45.50;;;;;;6276570;27;81070;-68
2023/12/31 02:32:29;;;;;;;8.70;4.30;;;23.10;45.60;;;;;;6259912;27;82577;-68
2023/12/31 02:35:29;;;;;;;7.50;4.28;;;23.10;45.50;;;;;;6278918;27;80906;-67
2023/12/31 02:38:30;;;;;;;8.02;4.28;;;23.10;45.40;;;;;;6278918;27;80813;-69
2023/12/31 02:41:32;;;;;;;7.25;4.15;;;23.10;45.40;;;;;;6279995;27;80710;-68
2023/12/31 02:44:32;;;;;;;7.00;4.22;;;23.10;45.50;;;;;;6279477;27;80996;-66
2023/12/31 02:47:33;;;;;;;11.73;5.82;;;23.10;45.30;;;;;;6260051;27;81517;-63
2023/12/31 02:50:33;;;;;;;8.43;4.72;;;23.10;45.30;;;;;;6277469;27;80494;-63
2023/12/31 02:53:33;;;;;;;6.90;4.00;;;23.10;45.20;;;;;;6276604;27;80816;-63
2023/12/31 02:56:34;;;;;;;8.93;4.40;;;23.10;45.20;;;;;;6278789;27;80537;-64
2023/12/31 02:59:34;;;;;;;9.45;4.72;;;23.10;45.20;;;;;;6260156;27;83490;-65
2023/12/31 03:02:35;;;;;;;5.07;3.88;;;23.10;45.20;;;;;;6258605;27;83559;-63
2023/12/31 03:05:36;;;;;;;6.72;4.00;;;23.10;45.20;;;;;;6277580;27;81123;-64
2023/12/31 03:08:36;;;;;;;8.90;4.57;;;23.00;45.10;;;;;;6277116;27;83082;-64
2023/12/31 03:11:37;;;;;;;8.95;3.92;;;23.10;45.20;;;;;;6278084;27;81172;-64
2023/12/31 03:14:37;;;;;;;8.27;4.68;;;23.10;45.20;;;;;;6249572;27;81411;-64
2023/12/31 03:17:38;;;;;;;5.88;3.63;;;23.10;45.20;;;;;;6276345;27;80438;-63
2023/12/31 03:20:38;;;;;;;7.72;4.18;;;23.00;45.20;;;;;;6258859;27;82069;-63
2023/12/31 03:23:39;;;;;;;8.10;3.95;;;23.10;45.50;;;;;;6259001;27;83049;-63
2023/12/31 03:26:42;;;;;;;7.53;4.38;;;23.10;45.40;;;;;;6277448;27;80858;-65
2023/12/31 03:29:42;;;;;;;6.40;3.90;;;23.10;45.40;;;;;;6278739;27;81176;-64
2023/12/31 03:32:43;;;;;;;7.07;3.65;;;23.10;45.40;;;;;;6274347;27;80648;-63
2023/12/31 03:35:43;;;;;;;7.35;3.90;;;23.10;45.10;;;;;;6260244;27;83601;-64
2023/12/31 03:38:44;;;;;;;7.15;3.83;;;23.10;44.90;;;;;;6269863;27;80629;-63
2023/12/31 03:41:44;;;;;;;8.68;4.47;;;23.10;45.10;;;;;;6271521;27;80765;-50
2023/12/31 03:44:45;;;;;;;5.68;3.30;;;23.10;45.80;;;;;;6257540;27;81549;-48
2023/12/31 03:47:45;;;;;;;8.20;4.18;;;23.10;45.00;;;;;;6276603;27;80558;-51
2023/12/31 03:50:46;;;;;;;5.95;3.50;;;23.10;45.10;;;;;;6277398;27;80486;-50
2023/12/31 03:53:46;;;;;;;7.22;3.85;;;23.20;45.00;;;;;;6257495;27;81527;-50
2023/12/31 03:56:47;;;;;;;7.88;3.78;;;23.20;45.00;;;;;;6258186;27;81539;-52
2023/12/31 03:59:47;;;;;;;7.47;4.47;;;23.20;45.00;;;;;;6258212;27;82972;-63
2023/12/31 04:02:48;;;;;;;5.18;3.50;;;23.20;45.00;;;;;;6259124;27;83013;-63
2023/12/31 04:05:48;;;;;;;7.50;3.35;;;23.10;45.20;;;;;;6275937;27;81053;-63
2023/12/31 04:08:49;;;;;;;5.15;3.25;;;23.10;45.40;;;;;;6278176;27;82891;-63
2023/12/31 04:11:49;;;;;;;4.88;3.30;;;23.10;46.10;;;;;;6273834;27;81067;-63
2023/12/31 04:14:50;;;;;;;6.53;3.53;;;23.20;45.80;;;;;;6272797;27;81242;-64
2023/12/31 04:17:50;;;;;;;5.53;3.38;;;23.20;45.10;;;;;;6272874;27;80540;-52
2023/12/31 04:20:51;;;;;;;6.53;4.07;;;23.20;44.70;;;;;;6272933;27;80676;-48
2023/12/31 04:23:51;;;;;;;7.20;3.25;;;23.20;45.60;;;;;;6254384;27;81498;-50
2023/12/31 04:26:52;;;;;;;8.05;3.95;;;23.20;44.70;;;;;;6254256;27;82100;-51
2023/12/31 04:29:52;;;;;;;6.20;3.53;;;23.30;44.60;;;;;;6256995;27;81503;-50
2023/12/31 04:32:54;;;;;;;6.47;3.45;;;23.30;44.70;;;;;;6263726;27;80625;-49
2023/12/31 04:35:54;;;;;;;4.95;3.50;;;23.30;44.70;;;;;;6273997;27;80297;-53
2023/12/31 04:38:55;;;;;;;6.63;3.47;;;23.40;44.70;;;;;;6276432;27;80850;-50
2023/12/31 04:41:55;;;;;;;5.30;3.25;;;23.40;44.70;;;;;;6275089;27;80564;-50
2023/12/31 04:44:59;;;;;;;5.38;2.80;;;23.50;44.90;;;;;;6255950;27;82201;-51
2023/12/31 04:48:00;;;;;;;5.68;3.40;;;23.50;44.70;;;;;;6275122;27;80724;-51
2023/12/31 04:51:00;;;;;;;6.28;3.30;;;23.50;44.70;;;;;;6275443;27;81280;-49
2023/12/31 04:54:01;;;;;;;7.22;3.25;;;23.50;44.80;;;;;;6276276;27;81494;-52
2023/12/31 04:57:01;;;;;;;4.15;3.10;;;23.50;44.80;;;;;;6257391;27;81757;-50
2023/12/31 05:00:03;;;;;;;6.60;3.20;;;23.60;44.90;;;;;;6276015;27;80380;-51
2023/12/31 05:03:03;;;;;;;6.70;3.10;;;23.60;44.90;;;;;;6266460;27;80937;-49
2023/12/31 05:06:04;;;;;;;4.78;3.20;;;23.60;44.60;;;;;;6268723;27;81212;-48
2023/12/31 05:09:08;;;;;;;6.53;3.22;;;23.60;44.50;;;;;;6274532;27;81030;-49
2023/12/31 05:12:08;;;;;;;5.13;3.08;;;23.60;44.70;;;;;;6274785;27;80610;-53
2023/12/31 05:15:09;;;;;;;4.45;2.85;;;23.70;44.80;;;;;;6274775;27;80725;-51
2023/12/31 05:18:09;;;;;;;6.07;3.15;;;23.70;44.70;;;;;;6275107;27;80523;-50
2023/12/31 05:21:13;;;;;;;6.22;3.42;;;23.70;44.70;;;;;;6275698;27;80638;-50
2023/12/31 05:24:13;;;;;;;5.13;2.90;;;23.70;44.70;;;;;;6274707;27;80436;-50
2023/12/31 05:27:14;;;;;;;5.03;3.25;;;23.70;44.80;;;;;;6278259;27;80675;-51
2023/12/31 05:30:14;;;;;;;5.32;3.22;;;23.70;44.70;;;;;;6278531;27;80388;-47
2023/12/31 05:33:15;;;;;;;6.57;3.13;;;23.70;44.60;;;;;;6278674;27;80629;-63
2023/12/31 05:36:16;;;;;;;5.05;3.08;;;23.70;44.70;;;;;;6280910;27;80371;-62
2023/12/31 05:39:16;;;;;;;6.22;3.08;;;23.70;44.80;;;;;;6279199;27;80222;-62
2023/12/31 05:42:17;;;;;;;5.60;3.60;;;23.70;44.80;;;;;;6279438;27;81430;-62
2023/12/31 05:45:18;;;;;;;4.75;3.33;;;23.70;44.80;;;;;;6277772;27;80903;-64
2023/12/31 05:48:18;;;;;;;5.18;3.45;;;23.70;44.70;;;;;;6278528;27;82754;-61
2023/12/31 05:51:19;;;;;;;4.05;2.88;;;23.70;44.80;;;;;;6279460;27;82460;-70
2023/12/31 05:54:19;;;;;;;4.97;3.25;;;23.70;44.60;;;;;;6279325;27;82369;-67
2023/12/31 05:57:20;;;;;;;5.25;3.05;;;23.70;44.50;;;;;;6281217;27;81268;-66
2023/12/31 06:00:21;;;;;;;5.40;3.25;;;23.70;44.50;;;;;;6280487;27;80930;-70
2023/12/31 06:03:22;;;;;;;5.43;3.58;;;23.80;44.60;;;;;;6278966;27;81402;-73
2023/12/31 06:06:22;;;;;;;5.10;3.50;;;23.70;44.50;;;;;;6280071;27;80618;-72
2023/12/31 06:09:23;;;;;;;6.05;2.53;;;23.70;44.40;;;;;;6278711;27;81394;-55
2023/12/31 06:12:23;;;;;;;4.55;3.10;;;23.70;44.50;;;;;;6277548;27;80724;-54
2023/12/31 06:15:24;;;;;;;8.07;3.25;;;23.70;44.70;;;;;;6278223;27;81199;-53
2023/12/31 06:18:24;;;;;;;4.88;2.80;;;23.70;45.20;;;;;;6276465;27;82540;-49
2023/12/31 06:21:25;;;;;;;12.57;3.03;;;23.70;44.90;;;;;;6277613;27;80742;-55
2023/12/31 06:24:25;;;;;;;7.03;2.97;;;23.70;45.00;;;;;;6278170;27;80905;-54
2023/12/31 06:27:26;;;;;;;6.53;3.47;;;23.70;44.90;;;;;;6278983;27;80433;-69
2023/12/31 06:30:26;;;;;;;6.75;3.03;;;23.70;45.70;;;;;;6277604;27;82606;-66
2023/12/31 06:33:27;;;;;;;5.80;3.10;;;23.70;45.20;;;;;;6274133;27;82218;-68
2023/12/31 06:36:27;;;;;;;6.45;2.85;;;23.70;45.20;;;;;;6277654;27;81151;-63
2023/12/31 06:39:29;;;;;;;4.43;3.00;;;23.70;45.10;;;;;;6278697;27;80545;-60
2023/12/31 06:42:29;;;;;;;5.53;3.00;;;23.60;45.20;;;;;;6278111;27;81754;-65
2023/12/31 06:45:30;;;;;;;6.88;3.60;;;23.60;44.90;;;;;;6279734;27;80711;-62
2023/12/31 06:48:30;;;;;;;7.07;3.42;;;23.60;44.50;;;;;;6278831;27;80974;-67
2023/12/31 06:51:31;;;;;;;8.38;3.40;;;23.60;44.50;;;;;;6279253;27;80798;-62
2023/12/31 06:54:31;;;;;;;10.10;3.67;;;23.50;44.70;;;;;;6276078;27;81409;-67
2023/12/31 06:57:32;;;;;;;7.85;4.47;;;23.50;45.00;;;;;;6278178;27;82351;-60
2023/12/31 07:00:32;;;;;;;7.70;3.75;;;23.60;45.10;;;;;;6258790;27;81383;-65
2023/12/31 07:03:33;;;;;;;7.07;3.20;;;23.50;45.30;;;;;;6255550;27;82167;-63
2023/12/31 07:06:33;;;;;;;8.07;3.72;;;23.60;44.90;;;;;;6252211;27;80941;-59
2023/12/31 07:09:34;;;;;;;7.38;3.88;;;23.60;45.20;;;;;;6257220;27;82462;-59
2023/12/31 07:12:34;;;;;;;14.43;3.47;;;23.60;46.10;;;;;;6271403;27;81228;-59
2023/12/31 07:15:35;;;;;;;7.95;3.60;;;23.70;46.50;;;;;;6273372;27;80980;-60
2023/12/31 07:18:36;;;;;;;8.38;3.60;;;23.70;47.70;;;;;;6273700;27;80956;-62
2023/12/31 07:21:37;;;;;;;9.82;3.65;;;23.70;48.50;;;;;;6271866;27;80483;-52
2023/12/31 07:24:37;;;;;;;8.05;3.58;;;23.70;48.80;;;;;;6273886;27;80481;-54
2023/12/31 07:27:38;;;;;;;6.47;3.50;;;23.70;49.20;;;;;;6273103;27;81291;-57
2023/12/31 07:30:39;;;;;;;9.13;3.30;;;23.70;49.00;;;;;;6271146;27;81391;-58
2023/12/31 07:33:40;;;;;;;6.70;3.38;;;23.80;49.20;;;;;;6273137;27;81236;-46
2023/12/31 07:36:40;;;;;;;4.72;3.33;;;23.80;49.20;;;;;;6273265;27;80708;-55
2023/12/31 07:39:41;;;;;;;11.20;3.67;;;23.80;49.00;;;;;;6275138;27;80848;-56
2023/12/31 07:42:42;;;;;;;5.70;3.20;;;23.90;49.30;;;;;;6273841;27;82917;-52
2023/12/31 07:45:43;;;;;;;7.13;3.53;;;23.90;49.30;;;;;;6275820;27;80556;-57
2023/12/31 07:48:43;;;;;;;8.10;3.50;;;23.90;48.90;;;;;;6257469;27;80540;-64
2023/12/31 07:51:44;;;;;;;7.45;3.67;;;23.90;48.70;;;;;;6274346;27;82595;-60
2023/12/31 07:54:44;;;;;;;9.98;3.33;;;23.80;48.40;;;;;;6275092;27;81526;-58
2023/12/31 07:57:45;;;;;;;7.35;3.78;;;23.80;48.70;;;;;;6274296;27;80549;-52
2023/12/31 08:00:45;;;;;;;10.65;3.08;;;23.80;48.70;;;;;;6276191;27;80595;-54
2023/12/31 08:03:46;;;;;;;10.65;3.42;;;23.80;48.30;;;;;;6270520;27;81746;-55
2023/12/31 08:06:46;;;;;;;8.20;3.33;;;23.80;48.40;;;;;;6276002;27;80589;-55
2023/12/31 08:09:47;;;;;;;11.55;4.80;;;23.80;48.90;;;;;;6275400;27;80491;-54
2023/12/31 08:12:47;;;;;;;11.07;4.82;;;23.50;43.20;;;;;;6274871;27;80760;-54
2023/12/31 08:15:48;;;;;;;8.43;5.13;;;23.20;42.20;;;;;;6275184;27;83627;-55
2023/12/31 08:18:48;;;;;;;10.10;5.57;;;22.90;42.00;;;;;;6276067;27;80582;-54
2023/12/31 08:21:49;;;;;;;9.00;5.20;;;22.70;41.70;;;;;;6274237;27;80703;-56
2023/12/31 08:24:49;;;;;;;11.00;5.60;;;22.60;41.70;;;;;;6275713;27;81109;-54
2023/12/31 08:27:50;;;;;;;9.63;5.30;;;22.50;41.70;;;;;;6276304;27;80948;-51
2023/12/31 08:30:50;;;;;;;9.95;4.97;;;22.40;41.50;;;;;;6256594;27;83436;-54
2023/12/31 08:33:51;;;;;;;10.40;5.38;;;22.30;41.60;;;;;;6272977;27;83644;-51
2023/12/31 08:36:52;;;;;;;11.80;5.82;;;22.20;41.40;;;;;;6271207;27;84679;-48
2023/12/31 08:39:53;;;;;;;8.98;5.18;;;22.10;41.10;;;;;;6273916;27;80044;-53
2023/12/31 08:42:53;;;;;;;8.73;4.90;;;22.10;41.20;;;;;;6272910;27;80504;-55
2023/12/31 08:45:54;;;;;;;9.57;4.88;;;22.10;42.00;;;;;;6264180;27;80720;-52
2023/12/31 08:48:54;;;;;;;9.68;5.32;;;22.10;41.80;;;;;;6273656;27;81400;-50
2023/12/31 08:51:55;;;;;;;9.43;6.03;;;22.10;41.20;;;;;;6274919;27;83153;-53
2023/12/31 08:54:55;;;;;;;8.63;5.10;;;22.10;41.50;;;;;;6273122;27;82693;-52
2023/12/31 08:57:56;;;;;;;12.57;5.78;;;22.20;43.00;;;;;;6273318;27;80764;-57
2023/12/31 09:00:57;;;;;;;14.90;6.70;;;22.30;42.40;;;;;;6263763;27;80506;-51
2023/12/31 09:03:58;;;;;;;14.35;5.18;;;22.40;41.80;;;;;;6274719;27;81046;-53
2023/12/31 09:06:58;;;;;;;8.45;4.93;;;22.40;42.80;;;;;;6274811;27;81652;-49
2023/12/31 09:09:59;;;;;;;8.75;5.90;;;22.50;42.90;;;;;;6273907;27;82480;-55
2023/12/31 09:13:00;;;;;;;11.15;5.88;;;22.60;42.90;;;;;;6274072;27;80850;-67
2023/12/31 09:16:00;;;;;;;9.95;5.45;;;22.70;43.00;;;;;;6275418;27;81866;-64
2023/12/31 09:19:01;;;;;;;11.25;5.40;;;22.70;42.70;;;;;;6274625;27;81051;-64
2023/12/31 09:22:02;;;;;;;10.35;5.63;;;22.80;42.70;;;;;;6274697;27;81149;-65
2023/12/31 09:25:05;;;;;;;8.75;6.00;;;22.90;42.70;;;;;;6270836;27;80649;-65
2023/12/31 09:28:06;;;;;;;9.07;5.88;;;23.00;42.50;;;;;;6271883;27;83450;-67
2023/12/31 09:31:06;;;;;;;11.68;7.40;;;23.10;42.40;;;;;;6272705;27;81851;-58
2023/12/31 09:34:07;;;;;;;12.48;6.85;;;23.20;42.00;;;;;;6272869;27;80522;-58
2023/12/31 09:37:07;;;;;;;12.13;7.50;;;23.20;41.90;;;;;;6273257;27;80589;-59
2023/12/31 09:40:08;;;;;;;13.07;7.00;;;23.30;41.40;;;;;;6272798;27;81037;-59
2023/12/31 09:43:09;;;;;;;9.77;6.43;;;23.40;41.50;;;;;;6267935;27;83610;-61
2023/12/31 09:46:09;;;;;;;18.17;8.23;;;23.50;41.40;;;;;;6272873;27;81406;-50
2023/12/31 09:49:10;;;;;;;11.32;7.13;;;23.60;41.20;;;;;;6273665;27;80944;-47
2023/12/31 09:52:10;;;;;;;10.80;6.38;;;23.70;40.90;;;;;;6271703;27;82403;-48
2023/12/31 09:55:11;;;;;;;19.55;9.52;;;23.80;41.60;;;;;;6274194;27;80635;-49
2023/12/31 09:58:11;;;;;;;42.97;15.02;;;23.90;43.70;;;;;;6271530;27;80911;-50
2023/12/31 10:01:12;;;;;;;27.90;13.75;;;24.00;45.00;;;;;;6244261;27;85597;-55
2023/12/31 10:04:12;;;;;;;25.48;11.68;;;24.10;44.50;;;;;;6267811;27;83867;-52
2023/12/31 10:07:13;;;;;;;29.88;12.95;;;24.20;43.80;;;;;;6260954;27;83110;-51
2023/12/31 10:10:16;;;;;;;25.05;14.60;;;24.30;43.70;;;;;;6261832;27;83643;-49
2023/12/31 10:13:17;;;;;;;27.38;15.73;;;24.40;44.00;;;;;;6259324;27;83261;-52
2023/12/31 10:16:18;;;;;;;30.70;15.80;;;24.50;44.60;;;;;;6254443;27;87151;-51
2023/12/31 10:19:19;;;;;;;30.77;15.52;;;24.50;45.80;;;;;;6264542;27;83688;-54
2023/12/31 10:22:20;;;;;;;37.97;16.40;;;24.60;45.60;;;;;;6266586;27;83932;-49
2023/12/31 10:25:22;;;;;;;34.88;16.52;;;24.70;45.90;;;;;;6255091;27;83559;-52
2023/12/31 10:28:22;;;;;;;27.58;15.07;;;24.70;46.20;;;;;;6249759;27;88518;-51
2023/12/31 10:31:24;;;;;;;29.85;14.63;;;24.80;46.50;;;;;;6265114;27;83705;-51
2023/12/31 10:34:24;;;;;;;27.38;15.38;;;24.90;47.00;;;;;;6250639;27;83297;-49
2023/12/31 10:37:25;;;;;;;24.67;14.10;;;24.90;47.70;;;;;;6260420;27;82904;-53
2023/12/31 10:40:25;;;;;;;26.90;13.38;;;25.00;47.10;;;;;;6252404;27;83218;-53
2023/12/31 10:43:26;;;;;;;27.13;12.50;;;25.00;47.60;;;;;;6271273;27;84189;-55
2023/12/31 10:46:26;;;;;;;24.13;11.25;;;25.10;47.70;;;;;;6262315;27;84843;-52
2023/12/31 10:49:30;;;;;;;24.77;10.40;;;25.10;48.00;;;;;;6264062;27;85665;-49
2023/12/31 10:52:31;;;;;;;23.73;12.38;;;25.10;48.20;;;;;;6268134;27;86763;-49
2023/12/31 10:55:31;;;;;;;16.48;9.57;;;25.10;48.60;;;;;;6273272;27;83511;-50
2023/12/31 10:58:32;;;;;;;16.52;9.98;;;25.10;48.30;;;;;;6268512;27;82954;-52
2023/12/31 11:01:33;;;;;;;21.33;9.68;;;25.10;48.50;;;;;;6263345;27;85691;-52
2023/12/31 11:04:34;;;;;;;18.40;9.15;;;25.00;48.50;;;;;;6273719;27;82076;-50
2023/12/31 11:07:35;;;;;;;18.95;9.93;;;25.00;48.40;;;;;;6274570;27;80429;-51
2023/12/31 11:10:35;;;;;;;17.02;9.57;;;25.00;48.10;;;;;;6275179;27;80689;-53
2023/12/31 11:13:36;;;;;;;15.43;8.23;;;25.00;48.00;;;;;;6275047;27;86765;-52
2023/12/31 11:16:36;;;;;;;14.77;7.70;;;25.00;47.90;;;;;;6271619;27;80719;-53
2023/12/31 11:19:37;;;;;;;19.75;8.60;;;25.00;48.30;;;;;;6273993;27;80319;-53
2023/12/31 11:22:38;;;;;;;13.75;7.68;;;25.00;48.10;;;;;;6256610;27;83142;-62
2023/12/31 11:25:38;;;;;;;14.48;7.80;;;25.00;48.10;;;;;;6265689;27;86966;-65
2023/12/31 11:28:39;;;;;;;13.98;7.65;;;25.00;48.50;;;;;;6260974;27;80460;-61
2023/12/31 11:31:42;;;;;;;17.20;8.23;;;25.00;47.90;;;;;;6273723;27;80783;-61
2023/12/31 11:34:43;;;;;;;12.20;7.20;;;25.00;47.80;;;;;;6253313;27;80950;-62
2023/12/31 11:37:43;;;;;;;16.08;7.40;;;25.10;47.90;;;;;;6271961;27;81151;-63
2023/12/31 11:40:44;;;;;;;14.93;6.80;;;25.20;47.50;;;;;;6275861;27;81584;-60
2023/12/31 11:43:45;;;;;;;15.57;7.82;;;25.30;47.00;;;;;;6267507;27;80255;-60
2023/12/31 11:46:46;;;;;;;13.63;7.00;;;25.30;46.80;;;;;;6274090;27;82340;-60
2023/12/31 11:49:46;;;;;;;13.52;7.25;;;25.40;46.60;;;;;;6253958;27;80474;-61
2023/12/31 11:52:47;;;;;;;15.55;7.82;;;25.30;46.30;;;;;;6269096;27;84518;-61
2023/12/31 11:55:47;;;;;;;10.38;6.25;;;25.30;46.80;;;;;;6274154;27;80385;-62
2023/12/31 11:58:48;;;;;;;10.30;6.60;;;25.20;46.70;;;;;;6275681;27;81149;-53
2023/12/31 12:01:49;;;;;;;13.07;6.90;;;25.20;46.60;;;;;;6278147;27;82724;-55
2023/12/31 12:04:49;;;;;;;11.77;6.45;;;25.10;47.20;;;;;;6271341;27;94337;-52
2023/12/31 12:07:50;;;;;;;11.18;5.88;;;25.10;47.20;;;;;;6242816;27;82021;-52
2023/12/31 12:10:50;;;;;;;13.88;6.70;;;25.00;46.60;;;;;;6260993;27;81137;-50
2023/12/31 12:13:51;;;;;;;10.75;6.15;;;24.90;46.30;;;;;;6229625;27;81717;-55
2023/12/31 12:16:52;;;;;;;7.43;5.35;;;24.90;46.30;;;;;;6231283;27;82909;-52
2023/12/31 12:19:53;;;;;;;9.65;6.38;;;24.90;46.50;;;;;;6232203;27;81070;-53
2023/12/31 12:22:55;;;;;;;8.70;6.10;;;24.90;46.30;;;;;;6233224;27;81398;-53
2023/12/31 12:25:55;;;;;;;9.73;5.82;;;24.90;46.30;;;;;;6237628;27;81249;-52
2023/12/31 12:28:56;;;;;;;10.85;7.03;;;24.90;46.30;;;;;;6234970;27;81152;-50
2023/12/31 12:31:57;;;;;;;9.40;5.55;;;24.90;46.30;;;;;;6228261;27;81209;-53
2023/12/31 12:35:03;;;;;;;8.93;5.70;;;24.90;46.30;;;;;;6233534;27;82049;-61
2023/12/31 12:38:03;;;;;;;9.30;5.80;;;24.90;46.10;;;;;;6236871;27;80974;-63
2023/12/31 12:41:04;;;;;;;11.85;6.45;;;25.00;46.30;;;;;;6233783;27;82300;-63
2023/12/31 12:44:05;;;;;;;8.30;5.50;;;25.00;46.40;;;;;;6241326;27;81946;-62
2023/12/31 12:47:06;;;;;;;8.65;5.80;;;25.10;47.40;;;;;;6265327;27;83411;-61
2023/12/31 12:50:06;;;;;;;12.00;6.00;;;25.10;48.00;;;;;;6228401;27;83497;-60
2023/12/31 12:53:07;;;;;;;8.80;5.63;;;25.20;47.60;;;;;;6224003;27;80913;-54
2023/12/31 12:56:07;;;;;;;8.45;5.75;;;25.20;47.60;;;;;;6248399;27;80344;-51
2023/12/31 12:59:08;;;;;;;10.00;5.45;;;25.30;47.60;;;;;;6248938;27;81512;-51
2023/12/31 13:02:08;;;;;;;7.95;5.20;;;25.30;47.50;;;;;;6248684;27;85305;-57
2023/12/31 13:05:09;;;;;;;10.65;5.72;;;25.30;47.60;;;;;;6228277;27;80476;-58
2023/12/31 13:08:10;;;;;;;8.18;5.32;;;25.30;47.50;;;;;;6248954;27;80826;-53
2023/12/31 13:11:11;;;;;;;8.43;5.38;;;25.30;47.50;;;;;;6242541;27;86292;-54
2023/12/31 13:14:11;;;;;;;7.57;5.22;;;25.30;47.40;;;;;;6248607;27;81910;-51
2023/12/31 13:17:12;;;;;;;10.65;5.95;;;25.30;47.20;;;;;;6248344;27;80813;-49
2023/12/31 13:20:12;;;;;;;9.57;5.18;;;25.30;47.20;;;;;;6249300;27;80700;-52
2023/12/31 13:23:13;;;;;;;8.85;5.50;;;25.30;47.10;;;;;;6248352;27;80731;-48
2023/12/31 13:26:13;;;;;;;14.60;5.95;;;25.30;47.00;;;;;;6248819;27;81914;-50
2023/12/31 13:29:14;;;;;;;8.70;5.60;;;25.30;46.80;;;;;;6249506;27;83245;-63
2023/12/31 13:32:14;;;;;;;8.50;5.18;;;25.30;46.80;;;;;;6255064;27;81011;-49
2023/12/31 13:35:15;;;;;;;8.07;5.30;;;25.30;46.80;;;;;;6247339;27;80946;-47
2023/12/31 13:38:15;;;;;;;8.00;5.40;;;25.30;46.60;;;;;;6249514;27;80578;-50
2023/12/31 13:41:16;;;;;;;8.93;5.68;;;25.30;46.60;;;;;;6241823;27;84130;-53
2023/12/31 13:44:16;;;;;;;7.68;4.93;;;25.30;46.60;;;;;;6247458;27;80396;-50
2023/12/31 13:47:17;;;;;;;7.70;5.38;;;25.20;46.50;;;;;;6249965;27;80653;-59
2023/12/31 13:50:17;;;;;;;5.95;4.63;;;25.20;46.40;;;;;;6253956;27;81130;-60
2023/12/31 13:53:18;;;;;;;7.45;4.97;;;25.20;46.30;;;;;;6252596;27;80358;-61
2023/12/31 13:56:19;;;;;;;7.95;5.30;;;25.20;46.30;;;;;;6253878;27;80540;-59
2023/12/31 13:59:19;;;;;;;12.07;5.75;;;25.10;46.30;;;;;;6254333;27;80561;-61
2023/12/31 14:02:20;;;;;;;8.55;5.50;;;25.10;46.30;;;;;;6253311;27;80673;-60
2023/12/31 14:05:20;;;;;;;7.03;5.28;;;25.10;46.40;;;;;;6251747;27;81654;-61
2023/12/31 14:08:21;;;;;;;11.02;5.15;;;25.00;46.50;;;;;;6253264;27;80219;-59
2023/12/31 14:11:21;;;;;;;7.57;4.85;;;25.00;46.50;;;;;;6249929;27;80536;-59
2023/12/31 14:14:22;;;;;;;8.77;5.32;;;24.90;46.60;;;;;;6254080;27;81827;-55
2023/12/31 14:17:23;;;;;;;11.27;5.60;;;24.90;46.50;;;;;;6253796;27;80863;-61
2023/12/31 14:20:24;;;;;;;12.63;5.55;;;24.80;47.40;;;;;;6254078;27;80684;-60
2023/12/31 14:23:24;;;;;;;11.60;5.20;;;24.70;47.00;;;;;;6251864;27;80674;-60
2023/12/31 14:26:24;;;;;;;10.55;6.07;;;24.70;47.20;;;;;;6251523;27;80746;-60
2023/12/31 14:29:25;;;;;;;11.02;5.80;;;24.60;47.00;;;;;;6253200;27;80625;-62
2023/12/31 14:32:25;;;;;;;13.07;5.97;;;24.60;47.70;;;;;;6247955;27;80533;-60
2023/12/31 14:35:26;;;;;;;11.00;4.93;;;24.60;46.90;;;;;;6250175;27;81730;-60
2023/12/31 14:38:26;;;;;;;10.00;5.78;;;24.60;47.00;;;;;;6249848;27;81525;-62
2023/12/31 14:41:27;;;;;;;12.10;5.78;;;24.60;47.40;;;;;;6251897;27;81195;-60
2023/12/31 14:44:29;;;;;;;10.68;5.78;;;24.60;47.70;;;;;;6250165;27;81044;-60
2023/12/31 14:47:29;;;;;;;10.52;5.60;;;24.50;47.70;;;;;;6252014;27;80455;-60
2023/12/31 14:50:30;;;;;;;9.30;5.65;;;24.50;47.50;;;;;;6249772;27;80843;-59
2023/12/31 14:53:31;;;;;;;13.30;6.15;;;24.50;47.60;;;;;;6250143;27;80656;-59
2023/12/31 14:56:36;;;;;;;11.38;6.20;;;24.40;47.50;;;;;;6249981;27;80478;-60
2023/12/31 14:59:37;;;;;;;9.63;5.72;;;24.40;47.90;;;;;;6250601;27;81271;-62
2023/12/31 15:02:37;;;;;;;13.13;6.13;;;24.40;47.50;;;;;;6239889;27;81777;-56
2023/12/31 15:05:38;;;;;;;8.30;5.43;;;24.40;47.60;;;;;;6254755;27;80502;-61
2023/12/31 15:08:38;;;;;;;13.20;6.13;;;24.40;47.70;;;;;;6251127;27;83928;-60
2023/12/31 15:11:39;;;;;;;10.82;5.93;;;24.40;47.60;;;;;;6252840;27;80137;-62
2023/12/31 15:14:39;;;;;;;9.75;6.00;;;24.40;47.60;;;;;;6252124;27;81039;-60
2023/12/31 15:17:40;;;;;;;12.18;6.10;;;24.40;47.70;;;;;;6251008;27;81432;-64
2023/12/31 15:20:44;;;;;;;10.38;5.50;;;24.40;47.60;;;;;;6253621;27;81382;-59
2023/12/31 15:23:45;;;;;;;7.40;5.68;;;24.40;48.00;;;;;;6254374;27;83495;-55
2023/12/31 15:26:45;;;;;;;11.27;5.57;;;24.40;48.00;;;;;;6253111;27;81329;-58
2023/12/31 15:29:46;;;;;;;10.95;5.82;;;24.30;48.20;;;;;;6254648;27;80656;-53
2023/12/31 15:32:47;;;;;;;9.80;5.68;;;24.30;48.20;;;;;;6251255;27;80426;-57
2023/12/31 15:35:50;;;;;;;10.55;5.63;;;24.30;48.00;;;;;;6250238;27;82018;-59